Bar Harbor, Maine
Current Conditions -  °F | °C
As of 2:35 PM on Thursday 18 Dec 2014 (Local Time) from KBHB Reporting Station
Overcast Overcast  
Wind Chill: 28°   Ceiling: 1400
Heat Index: 34°   Visibility: 3mi
Dew Point: 34°   Wind: 7mph
Humidity: 100%   Direction: 300°WNW
Pressure: 29.61"   Gusts: NA
Location:  44.39°N, 68.2°W
Report Text: KBHB 181935Z AUTO 30006KT 260V320 3SM BKN014 OVC020 01/01 A2961 RMK AO1
Loading
Personal Weather Stations






























Interactive Weather Map New forecast layout! Learn more

10-Day Weather Forecast

Advertisements
Track Severe Weather on mobile